createdAt,value
2022-11-13T00:01:11.083Z,23.42
2022-11-13T00:03:38.859Z,20.70
2022-11-13T00:06:06.786Z,28.70
2022-11-13T00:08:34.552Z,32.60
2022-11-13T00:11:06.847Z,34.05
2022-11-13T00:13:34.925Z,37.05
2022-11-13T00:16:04.947Z,28.02
2022-11-13T00:18:35.968Z,24.20
2022-11-13T00:23:36.430Z,30.33
2022-11-13T00:26:20.086Z,20.83
2022-11-13T00:28:52.079Z,27.25
2022-11-13T00:31:19.497Z,29.60
2022-11-13T00:36:34.239Z,21.42
2022-11-13T00:39:01.637Z,20.63
2022-11-13T00:41:29.002Z,22.42
2022-11-13T00:43:56.354Z,22.40
2022-11-13T00:46:23.816Z,23.23
2022-11-13T00:48:51.240Z,20.80
2022-11-13T00:51:19.738Z,21.65
2022-11-13T00:53:47.405Z,26.88
2022-11-13T00:56:15.081Z,25.88
2022-11-13T00:58:42.469Z,22.38
2022-11-13T01:01:12.994Z,20.05
2022-11-13T01:03:40.856Z,21.27
2022-11-13T01:06:21.793Z,20.58
2022-11-13T01:08:49.832Z,25.25
2022-11-13T01:11:20.642Z,22.58
2022-11-13T01:13:49.706Z,22.45
2022-11-13T01:16:19.787Z,28.02
2022-11-13T01:18:47.187Z,25.90
2022-11-13T01:21:18.847Z,24.73
2022-11-13T01:23:46.613Z,27.08
2022-11-13T01:26:20.450Z,25.23
2022-11-13T01:28:48.221Z,22.83
2022-11-13T01:31:21.456Z,17.52
2022-11-13T01:33:49.491Z,25.00
2022-11-13T01:36:20.182Z,29.95
2022-11-13T01:38:48.021Z,30.98
2022-11-13T01:41:23.621Z,37.58
2022-11-13T01:43:52.322Z,32.03
2022-11-13T01:46:22.000Z,33.78
2022-11-13T01:48:58.627Z,28.90
2022-11-13T01:51:33.984Z,26.05
2022-11-13T01:54:05.034Z,31.23
2022-11-13T01:56:32.705Z,32.83
2022-11-13T01:59:18.742Z,37.75
2022-11-13T02:01:46.595Z,30.33
2022-11-13T02:04:14.105Z,28.10
2022-11-13T02:06:47.704Z,29.95
2022-11-13T02:09:17.987Z,32.00
2022-11-13T02:11:45.772Z,34.47
2022-11-13T02:14:16.066Z,30.20
2022-11-13T02:16:47.162Z,31.35
2022-11-13T02:19:31.977Z,33.42
2022-11-13T02:22:17.821Z,33.00
2022-11-13T02:24:50.927Z,29.40
2022-11-13T02:27:32.926Z,28.95
2022-11-13T02:30:19.757Z,28.50
2022-11-13T02:32:52.599Z,29.27
2022-11-13T02:35:29.912Z,29.30
2022-11-13T02:38:00.558Z,27.63
2022-11-13T02:40:28.875Z,26.77
2022-11-13T02:42:56.278Z,28.95
2022-11-13T02:45:23.690Z,26.27
2022-11-13T02:47:51.411Z,26.92
2022-11-13T02:50:19.140Z,22.35
2022-11-13T02:52:46.604Z,24.77
2022-11-13T02:55:14.069Z,24.70
2022-11-13T02:57:41.459Z,23.42
2022-11-13T03:00:13.786Z,23.45
2022-11-13T03:02:42.006Z,25.10
2022-11-13T03:05:13.037Z,28.25
2022-11-13T03:07:41.976Z,25.80
2022-11-13T03:10:11.203Z,25.05
2022-11-13T03:12:38.901Z,23.05
2022-11-13T03:15:07.536Z,22.67
2022-11-13T03:17:35.578Z,24.05
2022-11-13T03:20:03.936Z,22.00
2022-11-13T03:22:31.362Z,27.42
2022-11-13T03:24:58.753Z,26.10
2022-11-13T03:27:26.436Z,21.92
2022-11-13T03:29:53.811Z,22.35
2022-11-13T03:32:21.293Z,27.45
2022-11-13T03:34:48.762Z,38.33
2022-11-13T03:37:16.424Z,30.90
2022-11-13T03:39:43.756Z,26.77
2022-11-13T03:42:11.127Z,35.67
2022-11-13T03:44:38.468Z,24.10
2022-11-13T03:47:05.910Z,23.98
2022-11-13T03:49:33.334Z,30.85
2022-11-13T03:52:00.711Z,25.17
2022-11-13T03:54:28.157Z,21.42
2022-11-13T03:56:55.516Z,27.73
2022-11-13T03:59:22.905Z,26.63
2022-11-13T04:01:50.320Z,23.10
2022-11-13T04:04:17.767Z,20.85
2022-11-13T04:06:45.263Z,22.45
2022-11-13T04:09:12.819Z,19.85
2022-11-13T04:11:40.292Z,20.50
2022-11-13T04:14:07.725Z,21.00
2022-11-13T04:16:35.087Z,19.48
2022-11-13T04:19:02.523Z,21.67
2022-11-13T04:21:29.941Z,22.35
2022-11-13T04:23:57.263Z,22.42
2022-11-13T04:26:24.805Z,21.60
2022-11-13T04:28:52.204Z,22.58
2022-11-13T04:31:19.564Z,22.80
2022-11-13T04:33:47.023Z,20.98
2022-11-13T04:36:14.447Z,20.48
2022-11-13T04:38:41.892Z,19.15
2022-11-13T04:41:32.291Z,21.08
2022-11-13T04:43:59.784Z,20.27
2022-11-13T04:46:27.221Z,21.88
2022-11-13T04:48:54.789Z,20.77
2022-11-13T04:51:22.224Z,24.30
2022-11-13T04:53:49.595Z,20.45
2022-11-13T04:56:17.082Z,18.85
2022-11-13T04:58:44.457Z,20.15
2022-11-13T05:01:11.848Z,20.00
2022-11-13T05:03:39.254Z,22.38
2022-11-13T05:06:08.729Z,18.23
2022-11-13T05:08:36.881Z,19.40
2022-11-13T05:11:04.550Z,20.75
2022-11-13T05:13:34.198Z,20.17
2022-11-13T05:16:04.327Z,19.05
2022-11-13T05:18:32.495Z,24.05
2022-11-13T05:21:00.445Z,19.15
2022-11-13T05:23:27.907Z,23.38
2022-11-13T05:26:06.239Z,17.92
2022-11-13T05:28:34.116Z,17.67
2022-11-13T05:31:07.500Z,22.60
2022-11-13T05:33:36.090Z,17.40
2022-11-13T05:36:05.212Z,18.30
2022-11-13T05:38:33.119Z,16.45
2022-11-13T05:41:15.791Z,22.13
2022-11-13T05:43:43.674Z,19.70
2022-11-13T05:46:17.687Z,17.48
2022-11-13T05:48:45.878Z,16.50
2022-11-13T05:51:15.849Z,13.90
2022-11-13T05:53:43.577Z,16.15
2022-11-13T05:56:15.377Z,15.60
2022-11-13T05:58:43.950Z,14.07
2022-11-13T06:01:32.776Z,28.38
2022-11-13T06:04:01.909Z,16.48
2022-11-13T06:06:30.818Z,15.23
2022-11-13T06:09:00.458Z,14.20
2022-11-13T06:11:29.698Z,16.52
2022-11-13T06:13:58.963Z,17.60
2022-11-13T06:16:34.560Z,13.65
2022-11-13T06:19:03.963Z,15.90
2022-11-13T06:21:37.069Z,11.77
2022-11-13T06:24:05.205Z,14.75
2022-11-13T06:26:35.061Z,12.77
2022-11-13T06:29:05.197Z,14.30
2022-11-13T06:31:35.937Z,14.30
2022-11-13T06:34:04.259Z,13.63
2022-11-13T06:36:34.143Z,12.63
2022-11-13T06:39:01.960Z,13.02
2022-11-13T06:41:31.573Z,9.88
2022-11-13T06:44:03.151Z,12.10
2022-11-13T06:46:31.662Z,11.27
2022-11-13T06:48:59.636Z,10.50
2022-11-13T06:51:29.724Z,10.45
2022-11-13T06:53:58.219Z,10.18
2022-11-13T06:56:26.248Z,10.25
2022-11-13T06:58:55.380Z,10.82
2022-11-13T07:01:24.906Z,11.43
2022-11-13T07:03:52.511Z,11.05
2022-11-13T07:06:22.771Z,10.90
2022-11-13T07:08:50.279Z,11.53
2022-11-13T07:11:20.970Z,9.73
2022-11-13T07:13:48.823Z,9.02
2022-11-13T07:16:18.231Z,10.68
2022-11-13T07:18:53.505Z,9.18
2022-11-13T07:21:21.730Z,9.02
2022-11-13T07:23:50.230Z,9.02
2022-11-13T07:26:18.484Z,8.85
2022-11-13T07:28:46.278Z,8.43
2022-11-13T07:31:14.897Z,10.90
2022-11-13T07:33:42.939Z,9.15
2022-11-13T07:36:11.064Z,9.45
2022-11-13T07:38:38.494Z,9.07
2022-11-13T07:41:06.355Z,9.48
2022-11-13T07:43:34.388Z,9.02
2022-11-13T07:46:02.171Z,9.55
2022-11-13T07:48:30.337Z,10.63
2022-11-13T07:51:02.686Z,8.52
2022-11-13T07:53:30.794Z,7.88
2022-11-13T07:56:01.901Z,11.90
2022-11-13T08:01:03.358Z,10.80
2022-11-13T08:03:35.175Z,8.60
2022-11-13T08:06:06.283Z,11.57
2022-11-13T08:11:09.460Z,9.00
2022-11-13T08:13:38.097Z,7.53
2022-11-13T08:16:06.089Z,10.05
2022-11-13T08:18:33.960Z,8.77
2022-11-13T08:21:03.494Z,9.30
2022-11-13T08:23:31.643Z,11.13
2022-11-13T08:26:03.414Z,8.65
2022-11-13T08:28:31.126Z,7.05
2022-11-13T08:30:59.569Z,7.65
2022-11-13T08:33:27.268Z,7.90
2022-11-13T08:35:56.757Z,7.95
2022-11-13T08:38:24.553Z,10.07
2022-11-13T08:40:52.377Z,9.77
2022-11-13T08:43:19.976Z,9.70
2022-11-13T08:45:47.698Z,7.93
2022-11-13T08:48:15.576Z,9.25
2022-11-13T08:50:43.122Z,8.68
2022-11-13T08:53:10.671Z,9.05
2022-11-13T08:55:38.187Z,6.63
2022-11-13T08:58:05.691Z,7.78
2022-11-13T09:00:33.705Z,6.95
2022-11-13T09:03:01.816Z,6.90
2022-11-13T09:05:29.400Z,7.45
2022-11-13T09:08:01.328Z,10.57
2022-11-13T09:10:29.541Z,13.52
2022-11-13T09:13:02.117Z,14.85
2022-11-13T09:15:31.348Z,10.43
2022-11-13T09:18:03.124Z,8.82
2022-11-13T09:20:32.309Z,12.75
2022-11-13T09:23:05.200Z,6.82
2022-11-13T09:25:37.649Z,13.40
2022-11-13T09:28:06.773Z,7.63
2022-11-13T09:30:34.667Z,8.07
2022-11-13T09:33:02.576Z,6.20
2022-11-13T09:35:36.844Z,7.05
2022-11-13T09:38:14.846Z,5.40
2022-11-13T09:40:51.600Z,6.47
2022-11-13T09:43:59.544Z,6.40
2022-11-13T09:46:36.194Z,7.82
2022-11-13T09:49:09.555Z,7.57
2022-11-13T09:51:38.921Z,5.60
2022-11-13T09:54:11.467Z,8.70
2022-11-13T09:57:05.061Z,6.93
2022-11-13T09:59:54.660Z,5.75
2022-11-13T10:02:31.055Z,6.03
2022-11-13T10:05:13.345Z,5.85
2022-11-13T10:07:44.986Z,5.18
2022-11-13T10:10:21.742Z,6.82
2022-11-13T10:12:52.867Z,8.70
2022-11-13T10:18:07.637Z,5.38
2022-11-13T10:20:51.299Z,10.15
2022-11-13T10:23:26.717Z,9.00
2022-11-13T10:25:58.606Z,8.63
2022-11-13T10:28:49.316Z,5.85
2022-11-13T10:31:15.034Z,9.38
2022-11-13T10:33:42.469Z,11.73
2022-11-13T10:36:39.913Z,6.43
2022-11-13T10:39:09.260Z,6.80
2022-11-13T10:41:52.820Z,11.52
2022-11-13T10:44:27.337Z,8.77
2022-11-13T10:47:15.816Z,8.88
2022-11-13T10:49:43.241Z,6.55
2022-11-13T10:52:29.210Z,5.30
2022-11-13T10:55:33.939Z,7.72
2022-11-13T10:58:03.802Z,4.97
2022-11-13T11:00:32.950Z,6.63
2022-11-13T11:03:00.946Z,4.20
2022-11-13T11:05:29.159Z,4.63
2022-11-13T11:07:57.631Z,7.63
2022-11-13T11:10:30.980Z,4.25
2022-11-13T11:13:04.766Z,5.45
2022-11-13T11:15:41.210Z,4.65
2022-11-13T11:18:24.297Z,4.72
2022-11-13T11:20:54.001Z,4.63
2022-11-13T11:23:41.446Z,5.43
2022-11-13T11:26:20.418Z,3.75
2022-11-13T11:29:14.884Z,4.95
2022-11-13T11:32:04.353Z,7.43
2022-11-13T11:34:43.586Z,7.72
2022-11-13T11:37:22.034Z,5.20
2022-11-13T11:40:01.175Z,4.15
2022-11-13T11:42:59.997Z,9.35
2022-11-13T11:45:30.964Z,8.43
2022-11-13T11:48:00.001Z,8.93
2022-11-13T11:50:55.157Z,6.43
2022-11-13T11:54:00.505Z,5.75
2022-11-13T11:56:35.533Z,4.68
2022-11-13T11:59:18.373Z,6.60
2022-11-13T12:02:10.594Z,8.93
2022-11-13T12:04:49.468Z,19.10
2022-11-13T12:07:41.226Z,18.83
2022-11-13T12:10:33.162Z,22.90
2022-11-13T12:13:25.567Z,11.00
2022-11-13T12:16:02.357Z,7.60
2022-11-13T12:18:41.011Z,8.55
2022-11-13T12:21:20.167Z,8.13
2022-11-13T12:24:07.815Z,9.23
2022-11-13T12:26:55.880Z,4.68
2022-11-13T12:29:35.213Z,7.03
2022-11-13T12:32:08.274Z,7.20
2022-11-13T12:34:44.629Z,14.30
2022-11-13T12:37:16.357Z,6.78
2022-11-13T12:39:43.745Z,22.58
2022-11-13T12:42:34.654Z,8.10
2022-11-13T12:45:25.005Z,9.55
2022-11-13T12:47:52.506Z,4.50
2022-11-13T12:50:32.775Z,3.80
2022-11-13T12:53:11.515Z,4.57
2022-11-13T12:55:40.944Z,5.38
2022-11-13T12:58:23.248Z,5.45
2022-11-13T13:00:57.928Z,5.32
2022-11-13T13:04:00.844Z,6.10
2022-11-13T13:06:52.597Z,7.35
2022-11-13T13:09:35.801Z,9.23
2022-11-13T13:12:07.522Z,6.88
2022-11-13T13:14:46.664Z,6.03
2022-11-13T13:17:22.902Z,7.25
2022-11-13T13:20:02.374Z,6.10
2022-11-13T13:22:34.511Z,5.95
2022-11-13T13:25:22.952Z,7.57
2022-11-13T13:28:21.512Z,6.82
2022-11-13T13:31:07.623Z,7.80
2022-11-13T13:33:43.783Z,7.30
2022-11-13T13:36:19.687Z,6.82
2022-11-13T13:39:00.244Z,3.92
2022-11-13T13:42:01.816Z,7.88
2022-11-13T13:45:12.590Z,7.20
2022-11-13T13:47:47.658Z,7.68
2022-11-13T13:50:19.157Z,3.58
2022-11-13T13:52:52.664Z,5.13
2022-11-13T13:55:35.565Z,7.55
2022-11-13T13:58:14.858Z,7.10
2022-11-13T14:01:05.118Z,6.10
2022-11-13T14:03:31.437Z,7.95
2022-11-13T14:06:11.115Z,10.52
2022-11-13T14:08:39.076Z,7.70
2022-11-13T14:11:20.736Z,7.82
2022-11-13T14:13:48.295Z,8.68
2022-11-13T14:16:15.831Z,7.53
2022-11-13T14:18:43.334Z,7.72
2022-11-13T14:21:25.905Z,7.75
2022-11-13T14:23:54.278Z,12.70
2022-11-13T14:26:21.950Z,8.68
2022-11-13T14:28:53.273Z,11.38
2022-11-13T14:31:34.272Z,10.95
2022-11-13T14:34:20.605Z,8.05
2022-11-13T14:36:48.968Z,12.52
2022-11-13T14:39:33.790Z,49.95
2022-11-13T14:42:01.602Z,9.13
2022-11-13T14:44:32.541Z,11.32
2022-11-13T14:47:07.185Z,5.32
2022-11-13T14:49:36.807Z,5.47
2022-11-13T14:52:04.849Z,9.93
2022-11-13T14:55:00.052Z,10.05
2022-11-13T14:57:24.934Z,8.00
2022-11-13T14:59:52.385Z,5.80
2022-11-13T15:02:20.425Z,4.85
2022-11-13T15:04:47.940Z,5.70
2022-11-13T15:07:31.741Z,8.68
2022-11-13T15:10:00.218Z,5.72
2022-11-13T15:12:27.782Z,5.38
2022-11-13T15:14:55.291Z,5.43
2022-11-13T15:17:23.466Z,5.60
2022-11-13T15:19:55.121Z,6.32
2022-11-13T15:22:27.994Z,4.68
2022-11-13T15:24:55.685Z,5.15
2022-11-13T15:27:23.229Z,6.50
2022-11-13T15:29:50.699Z,8.27
2022-11-13T15:32:18.258Z,5.00
2022-11-13T15:34:45.879Z,5.85
2022-11-13T15:37:15.942Z,20.20
2022-11-13T15:39:43.772Z,6.00
2022-11-13T15:42:16.241Z,5.00
2022-11-13T15:44:43.788Z,8.98
2022-11-13T15:47:31.851Z,4.25
2022-11-13T15:50:15.823Z,3.97
2022-11-13T15:52:47.840Z,4.43
2022-11-13T15:55:30.676Z,5.35
2022-11-13T15:57:59.362Z,8.32
2022-11-13T16:00:28.553Z,6.70
2022-11-13T16:02:57.586Z,5.65
2022-11-13T16:05:29.306Z,3.88
2022-11-13T16:07:57.854Z,4.45
2022-11-13T16:10:25.505Z,3.80
2022-11-13T16:12:53.847Z,4.97
2022-11-13T16:15:21.830Z,5.50
2022-11-13T16:17:52.708Z,4.95
2022-11-13T16:20:20.445Z,6.32
2022-11-13T16:22:48.367Z,5.05
2022-11-13T16:25:21.016Z,5.82
2022-11-13T16:27:48.667Z,6.28
2022-11-13T16:30:20.302Z,7.30
2022-11-13T16:32:49.026Z,4.75
2022-11-13T16:35:19.394Z,6.50
2022-11-13T16:37:47.745Z,4.38
2022-11-13T16:40:24.441Z,4.65
2022-11-13T16:42:52.374Z,6.60
2022-11-13T16:45:21.012Z,8.50
2022-11-13T16:47:50.854Z,9.48
2022-11-13T16:50:25.432Z,10.73
2022-11-13T16:52:52.986Z,12.32
2022-11-13T16:55:20.332Z,8.60
2022-11-13T16:57:47.696Z,6.63
2022-11-13T17:00:17.875Z,4.85
2022-11-13T17:02:45.535Z,5.57
2022-11-13T17:05:17.113Z,7.13
2022-11-13T17:07:44.734Z,4.72
2022-11-13T17:10:31.285Z,7.40
2022-11-13T17:13:00.525Z,9.32
2022-11-13T17:15:28.164Z,9.57
2022-11-13T17:17:58.430Z,9.77
2022-11-13T17:20:26.540Z,6.25
2022-11-13T17:22:54.096Z,6.88
2022-11-13T17:25:23.452Z,6.38
2022-11-13T17:27:51.010Z,5.45
2022-11-13T17:30:18.934Z,7.57
2022-11-13T17:32:46.491Z,6.90
2022-11-13T17:35:13.963Z,4.95
2022-11-13T17:37:41.661Z,7.93
2022-11-13T17:40:10.468Z,5.72
2022-11-13T17:42:38.303Z,5.15
2022-11-13T17:45:06.257Z,5.45
2022-11-13T17:47:36.716Z,6.70
2022-11-13T17:50:07.559Z,6.03
2022-11-13T17:52:35.410Z,6.93
2022-11-13T17:55:06.400Z,7.72
2022-11-13T18:00:01.158Z,10.10
2022-11-13T18:02:28.529Z,8.75
2022-11-13T18:04:59.215Z,7.95
2022-11-13T18:07:27.342Z,7.88
2022-11-13T18:09:55.076Z,7.60
2022-11-13T18:12:22.685Z,8.80
2022-11-13T18:14:52.675Z,6.13
2022-11-13T18:17:22.295Z,7.05
2022-11-13T18:19:51.035Z,6.93
2022-11-13T18:22:18.571Z,6.43
2022-11-13T18:24:46.072Z,4.47
2022-11-13T18:27:13.847Z,4.53
2022-11-13T18:29:41.459Z,3.92
2022-11-13T18:32:09.052Z,5.90
2022-11-13T18:34:36.561Z,7.40
2022-11-13T18:37:04.096Z,8.23
2022-11-13T18:39:31.580Z,10.50
2022-11-13T18:42:00.552Z,11.20
2022-11-13T18:44:28.247Z,11.93
2022-11-13T18:46:56.363Z,8.70
2022-11-13T18:49:23.867Z,8.80
2022-11-13T18:51:51.433Z,6.95
2022-11-13T18:54:18.837Z,6.45
2022-11-13T18:56:46.192Z,6.82
2022-11-13T18:59:13.618Z,7.22
2022-11-13T19:01:42.238Z,6.10
2022-11-13T19:04:25.685Z,5.30
2022-11-13T19:06:53.245Z,6.57
2022-11-13T19:09:21.049Z,5.35
2022-11-13T19:11:50.435Z,4.50
2022-11-13T19:14:19.002Z,5.20
2022-11-13T19:16:46.823Z,5.90
2022-11-13T19:19:22.011Z,6.93
2022-11-13T19:21:49.604Z,5.55
2022-11-13T19:24:17.695Z,7.53
2022-11-13T19:26:46.079Z,6.55
2022-11-13T19:29:13.990Z,8.80
2022-11-13T19:31:41.639Z,9.85
2022-11-13T19:34:10.347Z,6.57
2022-11-13T19:36:37.790Z,9.52
2022-11-13T19:39:05.514Z,7.13
2022-11-13T19:41:33.121Z,6.10
2022-11-13T19:44:00.832Z,5.28
2022-11-13T19:46:29.184Z,7.78
2022-11-13T19:48:56.610Z,8.13
2022-11-13T19:51:25.802Z,5.88
2022-11-13T19:53:57.800Z,5.68
2022-11-13T19:56:28.562Z,4.63
2022-11-13T19:58:56.652Z,5.85
2022-11-13T20:01:26.752Z,5.93
2022-11-13T20:03:59.372Z,7.90
2022-11-13T20:06:28.659Z,37.13
2022-11-13T20:08:57.948Z,10.65
2022-11-13T20:11:26.137Z,11.20
2022-11-13T20:13:55.339Z,10.30
2022-11-13T20:16:23.822Z,8.05
2022-11-13T20:18:51.870Z,8.05
2022-11-13T20:21:30.973Z,3.72
2022-11-13T20:23:59.612Z,3.60
2022-11-13T20:26:27.655Z,5.70
2022-11-13T20:28:55.195Z,7.63
2022-11-13T20:31:24.795Z,6.00
2022-11-13T20:33:54.446Z,7.50
2022-11-13T20:36:22.774Z,5.45
2022-11-13T20:38:58.914Z,9.05
2022-11-13T20:41:26.581Z,5.82
2022-11-13T20:43:56.399Z,11.75
2022-11-13T20:46:23.852Z,6.13
2022-11-13T20:48:51.366Z,6.93
2022-11-13T20:51:26.440Z,6.82
2022-11-13T20:53:54.878Z,6.93
2022-11-13T20:56:23.970Z,6.47
2022-11-13T20:58:51.595Z,7.78
2022-11-13T21:01:22.034Z,5.97
2022-11-13T21:03:49.631Z,5.93
2022-11-13T21:06:19.541Z,4.18
2022-11-13T21:08:47.533Z,5.63
2022-11-13T21:11:22.084Z,5.30
2022-11-13T21:13:50.070Z,6.13
2022-11-13T21:16:18.356Z,4.40
2022-11-13T21:18:46.640Z,4.82
2022-11-13T21:21:16.393Z,6.28
2022-11-13T21:23:43.828Z,9.45
2022-11-13T21:26:11.403Z,7.28
2022-11-13T21:28:39.306Z,6.60
2022-11-13T21:31:12.637Z,6.80
2022-11-13T21:33:43.225Z,6.22
2022-11-13T21:36:15.140Z,5.45
2022-11-13T21:38:43.251Z,8.38
2022-11-13T21:41:22.155Z,5.38
2022-11-13T21:43:51.118Z,8.02
2022-11-13T21:46:19.862Z,7.93
2022-11-13T21:48:48.057Z,5.40
2022-11-13T21:51:15.690Z,6.00
2022-11-13T21:53:43.130Z,4.90
2022-11-13T21:56:15.382Z,6.60
2022-11-13T21:58:43.645Z,6.35
2022-11-13T22:01:12.139Z,7.38
2022-11-13T22:03:39.983Z,4.97
2022-11-13T22:06:26.513Z,5.25
2022-11-13T22:08:59.263Z,5.65
2022-11-13T22:11:28.839Z,5.47
2022-11-13T22:13:57.017Z,7.15
2022-11-13T22:16:26.073Z,6.72
2022-11-13T22:18:58.902Z,8.73
2022-11-13T22:21:27.412Z,7.80
2022-11-13T22:23:55.551Z,8.45
2022-11-13T22:26:24.783Z,5.97
2022-11-13T22:28:53.426Z,8.50
2022-11-13T22:31:26.540Z,11.75
2022-11-13T22:33:55.298Z,12.18
2022-11-13T22:36:31.432Z,15.05
2022-11-13T22:38:59.521Z,11.73
2022-11-13T22:41:31.223Z,11.13
2022-11-13T22:44:01.501Z,10.75
2022-11-13T22:46:30.947Z,8.20
2022-11-13T22:49:01.851Z,8.77
2022-11-13T22:51:32.516Z,7.30
2022-11-13T22:54:05.008Z,6.05
2022-11-13T22:56:33.989Z,8.10
2022-11-13T22:59:03.080Z,6.60
2022-11-13T23:01:32.848Z,9.27
2022-11-13T23:04:04.453Z,6.72
2022-11-13T23:06:33.951Z,7.20
2022-11-13T23:09:01.873Z,7.85
2022-11-13T23:11:35.438Z,5.20
2022-11-13T23:14:05.794Z,6.35
2022-11-13T23:16:34.119Z,7.10
2022-11-13T23:19:02.482Z,8.15
2022-11-13T23:21:32.354Z,6.90
2022-11-13T23:24:00.361Z,5.07
2022-11-13T23:26:28.669Z,7.85
2022-11-13T23:28:56.691Z,7.07
2022-11-13T23:31:24.585Z,6.28
2022-11-13T23:33:51.980Z,7.57
2022-11-13T23:36:19.433Z,6.80
2022-11-13T23:38:47.133Z,6.28
2022-11-13T23:41:14.631Z,6.03
2022-11-13T23:46:29.291Z,5.93
2022-11-13T23:48:56.835Z,6.82
2022-11-13T23:51:24.186Z,6.85
2022-11-13T23:53:51.545Z,7.85
2022-11-13T23:56:18.968Z,6.60
2022-11-13T23:58:46.338Z,5.90
